createdAt,value
2023-04-17T00:00:33.525Z,14.10
2023-04-17T00:03:01.843Z,12.87
2023-04-17T00:05:29.073Z,13.90
2023-04-17T00:07:57.311Z,14.33
2023-04-17T00:10:24.270Z,14.33
2023-04-17T00:12:51.389Z,13.60
2023-04-17T00:15:18.313Z,14.53
2023-04-17T00:17:45.319Z,13.27
2023-04-17T00:20:12.607Z,13.67
2023-04-17T00:22:39.619Z,13.73
2023-04-17T00:25:07.547Z,14.20
2023-04-17T00:27:34.439Z,14.13
2023-04-17T00:30:01.817Z,14.73
2023-04-17T00:32:28.851Z,14.03
2023-04-17T00:34:55.987Z,15.23
2023-04-17T00:37:22.917Z,15.40
2023-04-17T00:39:49.708Z,15.47
2023-04-17T00:42:16.665Z,15.07
2023-04-17T00:44:43.963Z,15.80
2023-04-17T00:47:11.012Z,15.67
2023-04-17T00:49:38.027Z,15.13
2023-04-17T00:52:05.073Z,14.63
2023-04-17T00:54:32.488Z,15.53
2023-04-17T00:56:59.491Z,14.93
2023-04-17T00:59:28.314Z,13.57
2023-04-17T01:01:55.379Z,15.00
2023-04-17T01:04:22.442Z,14.40
2023-04-17T01:06:49.575Z,15.20
2023-04-17T01:09:16.914Z,14.97
2023-04-17T01:11:43.884Z,16.10
2023-04-17T01:14:10.794Z,15.27
2023-04-17T01:16:39.265Z,16.00
2023-04-17T01:19:06.921Z,15.47
2023-04-17T01:21:34.916Z,16.60
2023-04-17T01:24:03.630Z,16.00
2023-04-17T01:26:32.224Z,16.97
2023-04-17T01:29:01.058Z,15.63
2023-04-17T01:31:30.314Z,16.10
2023-04-17T01:33:57.395Z,16.33
2023-04-17T01:36:26.133Z,16.57
2023-04-17T01:38:53.058Z,16.07
2023-04-17T01:41:19.915Z,16.23
2023-04-17T01:43:47.746Z,16.40
2023-04-17T01:46:14.697Z,15.90
2023-04-17T01:48:41.621Z,16.67
2023-04-17T01:51:08.925Z,15.83
2023-04-17T01:53:37.257Z,16.37
2023-04-17T01:56:04.112Z,16.67
2023-04-17T01:58:31.529Z,16.60
2023-04-17T02:00:59.398Z,16.27
2023-04-17T02:03:26.644Z,17.37
2023-04-17T02:05:53.795Z,16.47
2023-04-17T02:08:20.702Z,16.80
2023-04-17T02:10:47.606Z,18.13
2023-04-17T02:13:14.859Z,19.00
2023-04-17T02:15:41.910Z,17.53
2023-04-17T02:18:09.589Z,18.27
2023-04-17T02:20:37.496Z,17.70
2023-04-17T02:23:05.858Z,17.97
2023-04-17T02:25:33.210Z,17.73
2023-04-17T02:28:00.599Z,17.87
2023-04-17T02:30:27.793Z,18.60
2023-04-17T02:32:56.779Z,18.47
2023-04-17T02:35:27.018Z,17.30
2023-04-17T02:37:54.135Z,17.67
2023-04-17T02:40:23.196Z,17.57
2023-04-17T02:42:54.665Z,17.00
2023-04-17T02:45:21.760Z,17.30
2023-04-17T02:47:48.945Z,17.23
2023-04-17T02:50:16.482Z,18.00
2023-04-17T02:53:09.743Z,17.80
2023-04-17T02:55:36.723Z,17.93
2023-04-17T02:58:03.803Z,17.17
2023-04-17T03:00:31.020Z,17.23
2023-04-17T03:02:58.040Z,18.30
2023-04-17T03:05:24.919Z,17.80
2023-04-17T03:07:54.284Z,18.00
2023-04-17T03:10:21.129Z,17.53
2023-04-17T03:12:48.893Z,17.60
2023-04-17T03:15:15.758Z,17.20
2023-04-17T03:17:43.270Z,18.53
2023-04-17T03:20:10.314Z,19.03
2023-04-17T03:22:37.346Z,18.83
2023-04-17T03:25:06.505Z,18.27
2023-04-17T03:27:44.161Z,17.77
2023-04-17T03:30:12.896Z,17.47
2023-04-17T03:32:42.996Z,19.90
2023-04-17T03:35:10.056Z,18.47
2023-04-17T03:37:36.859Z,18.70
2023-04-17T03:40:05.655Z,17.40
2023-04-17T03:42:32.603Z,17.83
2023-04-17T03:44:59.621Z,17.73
2023-04-17T03:47:29.704Z,18.03
2023-04-17T03:49:57.200Z,17.70
2023-04-17T03:52:25.702Z,17.70
2023-04-17T03:54:57.081Z,18.30
2023-04-17T03:57:25.778Z,18.83
2023-04-17T03:59:52.969Z,19.33
2023-04-17T04:02:20.986Z,20.17
2023-04-17T04:04:50.822Z,20.53
2023-04-17T04:07:18.535Z,19.97
2023-04-17T04:09:45.620Z,20.73
2023-04-17T04:12:13.006Z,21.23
2023-04-17T04:14:44.278Z,22.17
2023-04-17T04:17:12.768Z,20.80
2023-04-17T04:19:40.451Z,20.80
2023-04-17T04:22:08.099Z,19.67
2023-04-17T04:24:44.726Z,20.57
2023-04-17T04:27:18.131Z,19.20
2023-04-17T04:29:49.083Z,20.80
2023-04-17T04:32:19.425Z,18.93
2023-04-17T04:34:47.435Z,19.97
2023-04-17T04:37:17.136Z,20.67
2023-04-17T04:39:47.409Z,20.00
2023-04-17T04:42:22.240Z,19.70
2023-04-17T04:44:59.734Z,20.60
2023-04-17T04:47:29.671Z,18.47
2023-04-17T04:49:57.583Z,19.07
2023-04-17T04:52:25.397Z,20.83
2023-04-17T04:54:55.977Z,18.83
2023-04-17T04:57:23.910Z,19.50
2023-04-17T04:59:54.241Z,19.50
2023-04-17T05:02:33.114Z,19.40
2023-04-17T05:05:01.529Z,19.70
2023-04-17T05:07:31.551Z,20.33
2023-04-17T05:09:59.034Z,21.67
2023-04-17T05:12:26.956Z,18.90
2023-04-17T05:14:54.361Z,19.40
2023-04-17T05:17:22.330Z,20.27
2023-04-17T05:19:49.845Z,19.07
2023-04-17T05:22:18.059Z,21.23
2023-04-17T05:24:59.391Z,19.67
2023-04-17T05:27:27.112Z,19.80
2023-04-17T05:29:54.669Z,20.33
2023-04-17T05:32:22.012Z,19.77
2023-04-17T05:34:54.097Z,18.77
2023-04-17T05:37:24.814Z,19.90
2023-04-17T05:39:51.865Z,19.43
2023-04-17T05:42:18.724Z,20.57
2023-04-17T05:44:46.111Z,20.23
2023-04-17T05:47:13.294Z,20.13
2023-04-17T05:49:40.379Z,19.07
2023-04-17T05:52:07.292Z,17.63
2023-04-17T05:54:38.834Z,19.80
2023-04-17T05:57:05.963Z,18.60
2023-04-17T05:59:33.066Z,18.73
2023-04-17T06:02:00.157Z,18.87
2023-04-17T06:04:27.555Z,18.30
2023-04-17T06:06:55.224Z,19.43
2023-04-17T06:09:24.479Z,19.10
2023-04-17T06:11:52.588Z,18.00
2023-04-17T06:14:19.671Z,19.23
2023-04-17T06:16:47.521Z,18.20
2023-04-17T06:19:16.722Z,18.77
2023-04-17T06:21:45.034Z,18.60
2023-04-17T06:24:11.899Z,17.70
2023-04-17T06:26:44.543Z,17.53
2023-04-17T06:29:12.874Z,17.50
2023-04-17T06:31:40.637Z,16.80
2023-04-17T06:34:09.987Z,17.87
2023-04-17T06:36:41.523Z,17.97
2023-04-17T06:39:08.505Z,18.23
2023-04-17T06:41:35.731Z,18.67
2023-04-17T06:44:02.615Z,19.37
2023-04-17T06:46:44.706Z,18.37
2023-04-17T06:49:12.096Z,18.47
2023-04-17T06:51:39.342Z,18.80
2023-04-17T06:54:06.191Z,19.30
2023-04-17T06:56:33.057Z,18.23
2023-04-17T06:59:01.379Z,18.20
2023-04-17T07:01:31.597Z,19.33
2023-04-17T07:03:58.580Z,19.07
2023-04-17T07:06:26.258Z,18.43
2023-04-17T07:08:54.983Z,22.80
2023-04-17T07:11:22.450Z,18.77
2023-04-17T07:13:49.329Z,19.00
2023-04-17T07:16:16.515Z,19.50
2023-04-17T07:18:43.537Z,19.83
2023-04-17T07:21:10.563Z,19.13
2023-04-17T07:23:37.476Z,19.07
2023-04-17T07:26:04.255Z,20.17
2023-04-17T07:28:31.199Z,19.07
2023-04-17T07:30:58.322Z,20.00
2023-04-17T07:33:25.289Z,19.47
2023-04-17T07:35:53.837Z,18.70
2023-04-17T07:38:20.880Z,19.83
2023-04-17T07:40:47.685Z,20.67
2023-04-17T07:43:14.730Z,20.90
2023-04-17T07:45:42.058Z,19.07
2023-04-17T07:48:09.225Z,19.57
2023-04-17T07:50:36.137Z,19.60
2023-04-17T07:53:03.032Z,18.53
2023-04-17T07:55:30.015Z,19.90
2023-04-17T07:57:56.809Z,19.70
2023-04-17T08:00:23.813Z,18.97
2023-04-17T08:02:51.125Z,19.30
2023-04-17T08:05:18.536Z,19.30
2023-04-17T08:07:45.524Z,19.50
2023-04-17T08:10:12.422Z,20.57
2023-04-17T08:12:39.342Z,21.53
2023-04-17T08:15:06.579Z,21.53
2023-04-17T08:17:33.631Z,19.93
2023-04-17T08:20:02.511Z,20.53
2023-04-17T08:22:29.365Z,20.17
2023-04-17T08:24:59.834Z,20.23
2023-04-17T08:27:26.818Z,21.00
2023-04-17T08:29:56.769Z,19.00
2023-04-17T08:32:23.702Z,19.73
2023-04-17T08:34:50.511Z,19.13
2023-04-17T08:37:17.431Z,19.03
2023-04-17T08:39:44.419Z,18.57
2023-04-17T08:42:16.531Z,18.47
2023-04-17T08:44:45.844Z,20.10
2023-04-17T08:47:13.122Z,18.87
2023-04-17T08:49:43.786Z,20.10
2023-04-17T08:52:11.577Z,19.30
2023-04-17T08:54:39.142Z,20.30
2023-04-17T08:57:06.341Z,19.67
2023-04-17T08:59:33.366Z,21.13
2023-04-17T09:02:01.307Z,19.47
2023-04-17T09:04:38.733Z,17.37
2023-04-17T09:07:06.781Z,18.27
2023-04-17T09:09:52.437Z,19.10
2023-04-17T09:12:20.109Z,18.40
2023-04-17T09:14:47.333Z,19.47
2023-04-17T09:17:17.656Z,19.10
2023-04-17T09:20:07.801Z,20.13
2023-04-17T09:22:35.749Z,20.10
2023-04-17T09:25:02.926Z,20.37
2023-04-17T09:27:29.924Z,20.17
2023-04-17T09:29:57.629Z,20.37
2023-04-17T09:32:25.860Z,20.23
2023-04-17T09:34:53.476Z,20.93
2023-04-17T09:37:21.140Z,20.57
2023-04-17T09:39:59.046Z,20.33
2023-04-17T09:42:26.736Z,20.13
2023-04-17T09:44:55.308Z,20.20
2023-04-17T09:47:24.910Z,18.87
2023-04-17T09:49:52.923Z,19.63
2023-04-17T09:52:20.995Z,21.23
2023-04-17T09:54:49.816Z,20.37
2023-04-17T09:57:16.827Z,19.77
2023-04-17T09:59:50.847Z,20.17
2023-04-17T10:02:18.690Z,19.10
2023-04-17T10:04:47.215Z,20.27
2023-04-17T10:07:14.636Z,19.33
2023-04-17T10:09:42.227Z,19.93
2023-04-17T10:12:15.974Z,20.27
2023-04-17T10:14:48.483Z,18.87
2023-04-17T10:17:28.974Z,18.17
2023-04-17T10:19:56.085Z,18.80
2023-04-17T10:22:24.208Z,18.30
2023-04-17T10:24:54.545Z,18.53
2023-04-17T10:27:27.432Z,20.20
2023-04-17T10:29:55.059Z,18.37
2023-04-17T10:32:24.566Z,20.00
2023-04-17T10:34:52.280Z,19.60
2023-04-17T10:37:19.979Z,18.33
2023-04-17T10:39:50.665Z,18.43
2023-04-17T10:42:18.643Z,19.97
2023-04-17T10:44:45.739Z,18.33
2023-04-17T10:47:15.729Z,17.10
2023-04-17T10:49:49.936Z,18.80
2023-04-17T10:52:32.111Z,19.30
2023-04-17T10:55:05.767Z,20.27
2023-04-17T10:57:51.444Z,19.63
2023-04-17T11:00:19.274Z,19.00
2023-04-17T11:02:47.418Z,20.20
2023-04-17T11:05:15.005Z,19.93
2023-04-17T11:07:44.009Z,19.27
2023-04-17T11:10:11.235Z,18.10
2023-04-17T11:12:39.437Z,18.43
2023-04-17T11:15:06.638Z,18.63
2023-04-17T11:17:33.579Z,19.60
2023-04-17T11:20:00.439Z,19.97
2023-04-17T11:22:28.577Z,18.83
2023-04-17T11:24:55.528Z,18.73
2023-04-17T11:27:22.725Z,19.17
2023-04-17T11:29:49.702Z,18.80
2023-04-17T11:32:16.486Z,19.13
2023-04-17T11:34:43.340Z,20.80
2023-04-17T11:37:13.654Z,18.37
2023-04-17T11:39:42.250Z,18.67
2023-04-17T11:42:09.025Z,19.33
2023-04-17T11:44:36.050Z,19.30
2023-04-17T11:47:03.668Z,18.43
2023-04-17T11:49:31.634Z,18.40
2023-04-17T11:52:02.230Z,17.83
2023-04-17T11:54:29.836Z,17.80
2023-04-17T11:57:02.995Z,18.93
2023-04-17T11:59:34.038Z,16.93
2023-04-17T12:02:02.210Z,16.37
2023-04-17T12:04:31.090Z,16.57
2023-04-17T12:06:59.663Z,15.87
2023-04-17T12:09:31.839Z,16.73
2023-04-17T12:11:59.586Z,15.83
2023-04-17T12:14:26.828Z,13.83
2023-04-17T12:16:54.397Z,14.43
2023-04-17T12:19:21.413Z,14.20
2023-04-17T12:21:48.267Z,15.93
2023-04-17T12:24:15.598Z,16.20
2023-04-17T12:26:49.364Z,17.03
2023-04-17T12:29:17.134Z,13.33
2023-04-17T12:31:44.624Z,12.90
2023-04-17T12:34:11.766Z,13.10
2023-04-17T12:36:38.961Z,13.63
2023-04-17T12:39:05.904Z,15.30
2023-04-17T12:41:32.685Z,14.40
2023-04-17T12:44:03.837Z,13.87
2023-04-17T12:46:31.124Z,14.00
2023-04-17T12:49:00.805Z,12.80
2023-04-17T12:51:31.343Z,12.07
2023-04-17T12:53:58.410Z,12.17
2023-04-17T12:56:25.197Z,12.70
2023-04-17T12:58:52.091Z,12.40
2023-04-17T13:01:18.946Z,12.17
2023-04-17T13:03:46.470Z,11.83
2023-04-17T13:06:13.904Z,11.80
2023-04-17T13:08:40.726Z,12.37
2023-04-17T13:11:07.597Z,12.23
2023-04-17T13:13:34.474Z,11.80
2023-04-17T13:16:01.533Z,12.27
2023-04-17T13:18:28.357Z,11.10
2023-04-17T13:20:56.237Z,11.90
2023-04-17T13:23:23.109Z,12.47
2023-04-17T13:25:49.923Z,12.87
2023-04-17T13:28:16.821Z,12.77
2023-04-17T13:30:43.800Z,14.27
2023-04-17T13:33:10.736Z,14.40
2023-04-17T13:35:37.607Z,13.73
2023-04-17T13:38:04.560Z,13.00
2023-04-17T13:40:31.456Z,14.03
2023-04-17T13:42:58.710Z,13.73
2023-04-17T13:45:25.564Z,13.10
2023-04-17T13:47:52.497Z,12.43
2023-04-17T13:50:19.452Z,11.23
2023-04-17T13:52:46.366Z,11.03
2023-04-17T13:55:14.849Z,12.53
2023-04-17T13:57:41.715Z,12.57
2023-04-17T14:00:08.897Z,13.57
2023-04-17T14:02:36.173Z,13.37
2023-04-17T14:05:03.340Z,12.53
2023-04-17T14:07:30.615Z,13.07
2023-04-17T14:09:57.423Z,14.13
2023-04-17T14:12:24.456Z,13.93
2023-04-17T14:14:51.393Z,13.23
2023-04-17T14:17:18.417Z,11.97
2023-04-17T14:19:45.339Z,11.93
2023-04-17T14:22:12.217Z,13.03
2023-04-17T14:24:38.992Z,15.57
2023-04-17T14:27:05.932Z,16.87
2023-04-17T14:29:32.700Z,18.73
2023-04-17T14:31:59.552Z,21.37
2023-04-17T14:34:26.397Z,23.13
2023-04-17T14:36:53.222Z,13.53
2023-04-17T14:39:20.099Z,15.00
2023-04-17T14:41:47.404Z,15.17
2023-04-17T14:44:14.748Z,14.47
2023-04-17T14:46:42.012Z,15.90
2023-04-17T14:49:09.465Z,13.57
2023-04-17T14:51:36.347Z,15.63
2023-04-17T14:54:03.298Z,16.60
2023-04-17T14:56:30.181Z,23.87
2023-04-17T14:58:57.111Z,28.23
2023-04-17T15:01:23.975Z,25.07
2023-04-17T15:03:51.475Z,17.30
2023-04-17T15:06:19.467Z,20.27
2023-04-17T15:08:46.363Z,18.00
2023-04-17T15:11:13.308Z,16.23
2023-04-17T15:13:40.744Z,19.53
2023-04-17T15:16:09.281Z,17.93
2023-04-17T15:18:36.338Z,22.13
2023-04-17T15:21:03.394Z,23.47
2023-04-17T15:23:30.172Z,20.50
2023-04-17T15:25:57.981Z,13.10
2023-04-17T15:28:25.085Z,12.13
2023-04-17T15:30:52.039Z,12.23
2023-04-17T15:33:18.865Z,14.27
2023-04-17T15:35:45.800Z,17.23
2023-04-17T15:38:12.732Z,16.83
2023-04-17T15:40:39.604Z,11.67
2023-04-17T15:43:06.460Z,15.03
2023-04-17T15:45:33.297Z,12.53
2023-04-17T15:48:01.195Z,10.63
2023-04-17T15:50:28.181Z,11.40
2023-04-17T15:52:54.993Z,13.90
2023-04-17T15:55:22.001Z,12.93
2023-04-17T15:57:48.789Z,14.73
2023-04-17T16:00:15.878Z,15.87
2023-04-17T16:02:43.075Z,15.13
2023-04-17T16:05:10.265Z,14.03
2023-04-17T16:07:37.020Z,13.23
2023-04-17T16:10:03.987Z,10.93
2023-04-17T16:12:30.962Z,10.60
2023-04-17T16:14:57.792Z,11.03
2023-04-17T16:17:24.822Z,11.17
2023-04-17T16:19:51.672Z,10.77
2023-04-17T16:22:19.388Z,10.83
2023-04-17T16:24:46.255Z,12.07
2023-04-17T16:27:13.139Z,10.37
2023-04-17T16:29:40.009Z,11.33
2023-04-17T16:32:06.955Z,11.97
2023-04-17T16:34:33.811Z,12.47
2023-04-17T16:37:00.811Z,12.30
2023-04-17T16:39:27.629Z,11.67
2023-04-17T16:41:56.690Z,11.93
2023-04-17T16:44:25.358Z,10.87
2023-04-17T16:47:12.090Z,11.80
2023-04-17T16:49:39.768Z,12.60
2023-04-17T16:52:06.577Z,12.47
2023-04-17T16:54:33.568Z,12.23
2023-04-17T16:57:00.871Z,13.30
2023-04-17T16:59:27.752Z,12.57
2023-04-17T17:01:54.804Z,12.37
2023-04-17T17:04:21.730Z,13.07
2023-04-17T17:06:48.637Z,14.37
2023-04-17T17:09:15.663Z,14.40
2023-04-17T17:11:42.697Z,13.87
2023-04-17T17:14:09.589Z,14.50
2023-04-17T17:16:37.006Z,15.00
2023-04-17T17:19:04.072Z,14.40
2023-04-17T17:21:31.246Z,14.70
2023-04-17T17:23:58.458Z,16.33
2023-04-17T17:26:25.843Z,14.63
2023-04-17T17:28:53.579Z,16.83
2023-04-17T17:31:20.499Z,16.50
2023-04-17T17:46:48.051Z,19.27
2023-04-17T17:49:14.970Z,19.13
2023-04-17T17:51:42.163Z,19.93
2023-04-17T17:54:09.022Z,19.23
2023-04-17T17:56:35.863Z,19.53
2023-04-17T17:59:02.674Z,20.30
2023-04-17T18:01:29.533Z,19.93
2023-04-17T18:03:56.644Z,19.67
2023-04-17T18:06:23.516Z,20.53
2023-04-17T18:08:50.357Z,23.70
2023-04-17T18:11:17.164Z,21.67
2023-04-17T18:13:44.025Z,20.17
2023-04-17T18:16:10.976Z,18.43
2023-04-17T18:18:37.909Z,20.67
2023-04-17T18:21:08.001Z,19.77
2023-04-17T18:23:34.925Z,19.47
2023-04-17T18:26:02.855Z,18.70
2023-04-17T18:28:29.920Z,20.20
2023-04-17T18:30:56.695Z,20.13
2023-04-17T18:33:23.664Z,18.97
2023-04-17T18:35:50.467Z,18.60
2023-04-17T18:38:17.409Z,17.87
2023-04-17T18:40:44.380Z,18.03
2023-04-17T18:43:11.379Z,18.57
2023-04-17T18:45:38.342Z,18.20
2023-04-17T18:48:05.884Z,17.87
2023-04-17T18:50:33.159Z,17.50
2023-04-17T18:53:00.053Z,18.57
2023-04-17T18:55:27.554Z,16.50
2023-04-17T18:57:54.537Z,17.17
2023-04-17T19:00:21.337Z,17.43
2023-04-17T19:02:48.270Z,16.60
2023-04-17T19:05:15.351Z,15.80
2023-04-17T19:07:42.103Z,14.80
2023-04-17T19:10:09.205Z,14.57
2023-04-17T19:12:36.400Z,13.33
2023-04-17T19:15:03.598Z,12.50
2023-04-17T19:17:30.630Z,12.10
2023-04-17T19:19:57.521Z,11.07
2023-04-17T19:22:24.337Z,10.63
2023-04-17T19:24:53.089Z,11.07
2023-04-17T19:27:20.561Z,11.73
2023-04-17T19:29:47.944Z,12.70
2023-04-17T19:32:16.768Z,11.87
2023-04-17T19:34:44.276Z,9.93
2023-04-17T19:37:11.297Z,10.83
2023-04-17T19:39:38.046Z,11.20
2023-04-17T19:42:05.745Z,11.17
2023-04-17T19:44:32.590Z,11.63
2023-04-17T19:46:59.782Z,12.47
2023-04-17T19:49:26.690Z,12.40
2023-04-17T19:51:53.591Z,25.67
2023-04-17T19:54:20.349Z,18.17
2023-04-17T19:56:47.209Z,13.13
2023-04-17T19:59:14.693Z,13.30
2023-04-17T20:01:43.855Z,15.17
2023-04-17T20:04:11.202Z,20.60
2023-04-17T20:06:39.667Z,11.20
2023-04-17T20:09:06.807Z,14.73
2023-04-17T20:11:34.035Z,14.60
2023-04-17T20:14:00.864Z,14.63
2023-04-17T20:16:28.010Z,14.60
2023-04-17T20:18:56.867Z,16.53
2023-04-17T20:21:23.957Z,14.07
2023-04-17T20:23:51.026Z,14.50
2023-04-17T20:26:17.921Z,15.70
2023-04-17T20:28:44.661Z,14.00
2023-04-17T20:31:11.816Z,20.80
2023-04-17T20:33:38.722Z,16.60
2023-04-17T20:36:05.847Z,12.90
2023-04-17T20:38:32.690Z,18.07
2023-04-17T20:40:59.791Z,16.10
2023-04-17T20:43:26.548Z,14.77
2023-04-17T20:45:53.434Z,13.77
2023-04-17T20:48:20.480Z,12.50
2023-04-17T20:50:47.735Z,18.83
2023-04-17T20:53:14.503Z,13.10
2023-04-17T20:55:41.419Z,12.80
2023-04-17T20:58:08.282Z,10.97
2023-04-17T21:00:35.059Z,12.00
2023-04-17T21:03:02.104Z,12.80
2023-04-17T21:05:29.318Z,12.13
2023-04-17T21:07:57.879Z,8.97
2023-04-17T21:10:24.828Z,12.47
2023-04-17T21:12:51.661Z,10.63
2023-04-17T21:15:18.670Z,10.10
2023-04-17T21:17:47.884Z,8.97
2023-04-17T21:20:14.950Z,9.73
2023-04-17T21:22:41.873Z,9.83
2023-04-17T21:25:08.754Z,11.33
2023-04-17T21:27:35.972Z,9.20
2023-04-17T21:30:04.005Z,9.07
2023-04-17T21:32:30.909Z,9.67
2023-04-17T21:34:57.824Z,8.50
2023-04-17T21:37:24.651Z,8.23
2023-04-17T21:39:51.475Z,8.20
2023-04-17T21:42:18.313Z,12.47
2023-04-17T21:44:45.175Z,11.40
2023-04-17T21:47:12.394Z,8.60
2023-04-17T21:49:39.257Z,9.13
2023-04-17T21:52:06.183Z,7.87
2023-04-17T21:54:33.644Z,7.60
2023-04-17T21:57:00.532Z,10.50
2023-04-17T21:59:27.518Z,7.43
2023-04-17T22:01:54.350Z,7.67
2023-04-17T22:04:21.184Z,7.60
2023-04-17T22:06:48.467Z,6.87
2023-04-17T22:09:15.314Z,7.10
2023-04-17T22:11:42.221Z,7.10
2023-04-17T22:14:09.087Z,6.90
2023-04-17T22:16:36.556Z,6.97
2023-04-17T22:19:03.424Z,7.20
2023-04-17T22:22:07.718Z,8.37
2023-04-17T22:25:30.426Z,6.43
2023-04-17T22:28:53.503Z,6.63
2023-04-17T22:32:16.440Z,6.70
2023-04-17T22:35:39.371Z,6.30
2023-04-17T22:39:02.432Z,6.63
2023-04-17T22:42:25.681Z,6.83
2023-04-17T22:45:49.103Z,5.83
2023-04-17T22:49:11.949Z,6.23
2023-04-17T22:52:35.169Z,6.57
2023-04-17T22:55:58.437Z,6.27
2023-04-17T22:59:21.374Z,5.37
2023-04-17T23:02:44.574Z,6.30
2023-04-17T23:06:07.363Z,5.20
2023-04-17T23:09:23.446Z,4.70
2023-04-17T23:11:50.428Z,5.77
2023-04-17T23:14:17.557Z,5.63
2023-04-17T23:16:44.356Z,5.10
2023-04-17T23:19:11.216Z,5.60
2023-04-17T23:21:38.025Z,5.80
2023-04-17T23:24:04.835Z,5.93
2023-04-17T23:26:31.752Z,4.93
2023-04-17T23:28:58.512Z,5.50
2023-04-17T23:31:25.751Z,5.10
2023-04-17T23:33:52.793Z,5.43
2023-04-17T23:36:19.752Z,5.37
2023-04-17T23:38:49.656Z,5.80
2023-04-17T23:41:16.590Z,6.07
2023-04-17T23:43:43.318Z,6.50
2023-04-17T23:46:10.260Z,5.57
2023-04-17T23:48:37.082Z,5.57
2023-04-17T23:51:04.008Z,5.47
2023-04-17T23:53:30.902Z,5.30
2023-04-17T23:55:57.715Z,5.37
2023-04-17T23:58:24.518Z,5.40
